Back to Top

Language: 

My Weather Underground Personal Weather Station Historical Data with Graphs...

Delerius Weather Station Historical Data
Daily Summary for September 5, 2017 Units:  English    Metric   Both
« Previous Day
Next Day »
Daily Weekly Monthly Yearly Custom
  High: Low: Average:
Temperature: 66.9 °F 51.6 °F 61.6 °F
Dew Point: 61.8 °F 49.5 °F 57.9 °F
Humidity: 96 % 77 % 88 %
Wind Speed: 13.0 mph 0.0 mph 5.2 mph
Wind Gust: 25.0 mph - -
Wind:- - SW
Pressure: 29.94 in 29.79 in -
Precipitation: 0.19 in    
Historical Graphs
 
 
Tabular Data for September 5, 2017
Time Temperature Dew Point Pressure Wind Wind Speed Wind Gust Humidity Rainfall Rate (Hourly) solar Conditions
00:00 64.6 °F 60.3 °F 29.86 in Calm     86 % 0.00 in 0 W/m2
00:05 64.4 °F 60.1 °F 29.86 in Calm     86 % 0.00 in 0 W/m2
00:10 64.4 °F 60.1 °F 29.86 in Calm   1.0 mph 86 % 0.00 in 0 W/m2
00:15 64.4 °F 60.4 °F 29.86 in Calm   2.0 mph 87 % 0.00 in 0 W/m2
00:20 64.4 °F 60.4 °F 29.86 in Calm   4.0 mph 87 % 0.00 in 0 W/m2
00:25 64.2 °F 60.3 °F 29.86 in SSW 2.0 mph 6.0 mph 87 % 0.00 in 0 W/m2
00:30 64.2 °F 60.3 °F 29.85 in South 3.0 mph 7.0 mph 87 % 0.00 in 0 W/m2
00:35 64.2 °F 60.3 °F 29.86 in SSE 3.0 mph 7.0 mph 87 % 0.00 in 0 W/m2
00:40 64.2 °F 60.3 °F 29.86 in South 3.0 mph 6.0 mph 87 % 0.00 in 0 W/m2
00:45 64.2 °F 60.3 °F 29.86 in South 1.0 mph 6.0 mph 87 % 0.00 in 0 W/m2
00:50 64.2 °F 60.3 °F 29.86 in South 2.0 mph 5.0 mph 87 % 0.00 in 0 W/m2
00:55 64.2 °F 60.3 °F 29.86 in South 1.0 mph 5.0 mph 87 % 0.00 in 0 W/m2
01:00 64.2 °F 60.3 °F 29.86 in Calm   1.0 mph 87 % 0.00 in 0 W/m2
01:04 64.2 °F 60.3 °F 29.85 in Calm     87 % 0.00 in 0 W/m2
01:09 64.2 °F 60.3 °F 29.85 in Calm     87 % 0.00 in 0 W/m2
01:14 64.0 °F 60.1 °F 29.85 in Calm     87 % 0.00 in 0 W/m2
01:19 64.0 °F 60.1 °F 29.85 in Calm     87 % 0.00 in 0 W/m2
01:24 64.0 °F 60.4 °F 29.85 in Calm   1.0 mph 88 % 0.00 in 0 W/m2
01:29 64.0 °F 60.4 °F 29.85 in Calm   2.0 mph 88 % 0.00 in 0 W/m2
01:34 63.9 °F 60.2 °F 29.85 in South 1.0 mph 5.0 mph 88 % 0.00 in 0 W/m2
01:39 63.9 °F 60.2 °F 29.85 in South 2.0 mph 6.0 mph 88 % 0.00 in 0 W/m2
01:44 63.9 °F 60.2 °F 29.85 in South 2.0 mph 6.0 mph 88 % 0.00 in 0 W/m2
01:49 63.9 °F 60.2 °F 29.85 in SSW 3.0 mph 7.0 mph 88 % 0.00 in 0 W/m2
01:54 63.9 °F 60.2 °F 29.85 in South 4.0 mph 9.0 mph 88 % 0.00 in 0 W/m2
01:59 63.9 °F 60.2 °F 29.85 in South 2.0 mph 9.0 mph 88 % 0.00 in 0 W/m2
02:04 63.9 °F 60.2 °F 29.85 in SSW 2.0 mph 7.0 mph 88 % 0.00 in 0 W/m2
02:09 63.9 °F 60.2 °F 29.85 in SW 2.0 mph 7.0 mph 88 % 0.00 in 0 W/m2
02:14 63.7 °F 59.7 °F 29.85 in SSW 2.0 mph 6.0 mph 87 % 0.00 in 0 W/m2
02:19 63.7 °F 59.7 °F 29.85 in SSW 2.0 mph 6.0 mph 87 % 0.00 in 0 W/m2
02:24 63.7 °F 59.7 °F 29.84 in SSW 3.0 mph 6.0 mph 87 % 0.00 in 0 W/m2
02:29 63.7 °F 59.7 °F 29.84 in SW 4.0 mph 7.0 mph 87 % 0.00 in 0 W/m2
02:34 63.7 °F 59.7 °F 29.84 in SW 5.0 mph 9.0 mph 87 % 0.00 in 0 W/m2
02:39 63.7 °F 59.7 °F 29.84 in SW 5.0 mph 9.0 mph 87 % 0.00 in 0 W/m2
02:44 63.7 °F 59.7 °F 29.84 in SW 4.0 mph 7.0 mph 87 % 0.00 in 0 W/m2
02:49 63.7 °F 59.7 °F 29.83 in SSW 4.0 mph 7.0 mph 87 % 0.00 in 0 W/m2
02:54 63.5 °F 59.6 °F 29.83 in SSW 2.0 mph 7.0 mph 87 % 0.00 in 0 W/m2
03:04 63.3 °F 59.4 °F 29.83 in SSE 4.0 mph 8.0 mph 87 % 0.00 in 0 W/m2
03:09 63.3 °F 59.7 °F 29.83 in SSE 5.0 mph 8.0 mph 88 % 0.00 in 0 W/m2
03:14 63.3 °F 59.7 °F 29.83 in SSE 5.0 mph 9.0 mph 88 % 0.00 in 0 W/m2
03:19 63.1 °F 59.5 °F 29.83 in South 4.0 mph 9.0 mph 88 % 0.00 in 0 W/m2
03:24 63.1 °F 59.5 °F 29.83 in South 4.0 mph 9.0 mph 88 % 0.00 in 0 W/m2
03:29 63.1 °F 59.5 °F 29.83 in South 3.0 mph 7.0 mph 88 % 0.00 in 0 W/m2
03:34 63.0 °F 59.3 °F 29.83 in South 2.0 mph 6.0 mph 88 % 0.00 in 0 W/m2
03:35 63.0 °F 59.3 °F 29.83 in South 2.0 mph 6.0 mph 88 % 0.00 in 0 W/m2
03:40 63.0 °F 59.3 °F 29.83 in South 3.0 mph 8.0 mph 88 % 0.00 in 0 W/m2
03:45 63.0 °F 59.3 °F 29.83 in SSW 4.0 mph 8.0 mph 88 % 0.00 in 0 W/m2
03:50 63.0 °F 59.7 °F 29.83 in SSW 3.0 mph 8.0 mph 89 % 0.00 in 0 W/m2
03:55 62.8 °F 59.5 °F 29.83 in SSW 2.0 mph 7.0 mph 89 % 0.00 in 0 W/m2
04:00 62.8 °F 59.5 °F 29.83 in SSW 2.0 mph 7.0 mph 89 % 0.00 in 0 W/m2
04:05 62.8 °F 59.5 °F 29.82 in SSW 1.0 mph 5.0 mph 89 % 0.00 in 0 W/m2
04:10 62.8 °F 59.5 °F 29.83 in SSW 1.0 mph 5.0 mph 89 % 0.00 in 0 W/m2
04:15 62.8 °F 59.5 °F 29.83 in WSW 3.0 mph 10.0 mph 89 % 0.00 in 0 W/m2
04:20 62.8 °F 59.5 °F 29.82 in WSW 6.0 mph 12.0 mph 89 % 0.00 in 0 W/m2
04:23 62.8 °F 59.5 °F 29.82 in SW 5.0 mph 12.0 mph 89 % 0.00 in 0 W/m2
04:27 62.8 °F 59.5 °F 29.82 in SW 5.0 mph 12.0 mph 89 % 0.00 in 0 W/m2
04:32 62.8 °F 59.5 °F 29.82 in SW 4.0 mph 8.0 mph 89 % 0.00 in 0 W/m2
04:37 62.6 °F 59.3 °F 29.82 in SW 5.0 mph 8.0 mph 89 % 0.00 in 0 W/m2
04:42 62.6 °F 59.3 °F 29.82 in WSW 5.0 mph 9.0 mph 89 % 0.00 in 0 W/m2
04:47 62.6 °F 59.3 °F 29.82 in WSW 6.0 mph 10.0 mph 89 % 0.00 in 0 W/m2
04:52 62.8 °F 59.5 °F 29.81 in SW 5.0 mph 10.0 mph 89 % 0.00 in 0 W/m2
04:57 62.6 °F 59.3 °F 29.81 in SSW 4.0 mph 8.0 mph 89 % 0.00 in 0 W/m2
05:02 62.6 °F 59.3 °F 29.81 in SSW 4.0 mph 8.0 mph 89 % 0.00 in 0 W/m2
05:07 62.6 °F 59.3 °F 29.81 in SSW 5.0 mph 8.0 mph 89 % 0.00 in 0 W/m2
05:12 62.6 °F 59.3 °F 29.81 in SSW 5.0 mph 8.0 mph 89 % 0.00 in 0 W/m2
05:17 62.6 °F 59.3 °F 29.81 in SW 4.0 mph 10.0 mph 89 % 0.00 in 0 W/m2
05:22 62.6 °F 59.3 °F 29.81 in South 3.0 mph 10.0 mph 89 % 0.00 in 0 W/m2
05:27 62.4 °F 59.4 °F 29.81 in SE 3.0 mph 5.0 mph 90 % 0.00 in 0 W/m2
05:32 62.4 °F 59.4 °F 29.81 in SE 3.0 mph 5.0 mph 90 % 0.00 in 0 W/m2
05:37 62.4 °F 59.4 °F 29.82 in SSE 2.0 mph 5.0 mph 90 % 0.00 in 0 W/m2
05:42 62.4 °F 59.8 °F 29.81 in South 2.0 mph 7.0 mph 91 % 0.01 in 0 W/m2
05:47 62.2 °F 59.6 °F 29.81 in SSW 3.0 mph 8.0 mph 91 % 0.02 in 0 W/m2
05:52 62.2 °F 59.9 °F 29.81 in SSW 4.0 mph 8.0 mph 92 % 0.03 in 0 W/m2
05:55 62.1 °F 59.7 °F 29.81 in SSW 4.0 mph 8.0 mph 92 % 0.04 in 0 W/m2
06:00 61.9 °F 59.5 °F 29.81 in SSW 3.0 mph 8.0 mph 92 % 0.06 in 0 W/m2
06:05 61.9 °F 59.8 °F 29.81 in SSW 2.0 mph 8.0 mph 93 % 0.06 in 0 W/m2
06:10 61.7 °F 59.7 °F 29.81 in Calm   2.0 mph 93 % 0.07 in 0 W/m2
06:15 61.5 °F 59.5 °F 29.81 in Calm   1.0 mph 93 % 0.08 in 0 W/m2
06:20 61.5 °F 59.8 °F 29.81 in Calm   2.0 mph 94 % 0.09 in 0 W/m2
06:25 61.5 °F 59.8 °F 29.81 in SW 1.0 mph 4.0 mph 94 % 0.09 in 0 W/m2
06:30 61.3 °F 59.6 °F 29.81 in South 2.0 mph 7.0 mph 94 % 0.10 in 0 W/m2
06:35 61.3 °F 59.6 °F 29.80 in SSE 3.0 mph 7.0 mph 94 % 0.10 in 0 W/m2
06:40 61.3 °F 59.6 °F 29.80 in SSE 3.0 mph 7.0 mph 94 % 0.10 in 0 W/m2
06:45 61.2 °F 59.4 °F 29.80 in SSE 4.0 mph 9.0 mph 94 % 0.09 in 0 W/m2
06:50 61.2 °F 59.4 °F 29.81 in SSE 5.0 mph 10.0 mph 94 % 0.09 in 0 W/m2
06:55 61.2 °F 59.7 °F 29.81 in SSE 5.0 mph 10.0 mph 95 % 0.08 in 0 W/m2
07:00 61.0 °F 59.5 °F 29.80 in SSE 4.0 mph 8.0 mph 95 % 0.06 in 0 W/m2
07:05 61.0 °F 59.5 °F 29.80 in South 4.0 mph 7.0 mph 95 % 0.06 in 5 W/m2
07:10 61.0 °F 59.5 °F 29.80 in SSE 4.0 mph 7.0 mph 95 % 0.05 in 5 W/m2
07:15 61.0 °F 59.5 °F 29.80 in SSE 4.0 mph 7.0 mph 95 % 0.04 in 5 W/m2
07:20 61.0 °F 59.5 °F 29.80 in South 4.0 mph 10.0 mph 95 % 0.03 in 9 W/m2
07:25 61.0 °F 59.5 °F 29.80 in South 4.0 mph 10.0 mph 95 % 0.02 in 9 W/m2
07:30 61.0 °F 59.5 °F 29.80 in South 4.0 mph 9.0 mph 95 % 0.02 in 7 W/m2
07:35 61.0 °F 59.5 °F 29.80 in South 5.0 mph 10.0 mph 95 % 0.02 in 7 W/m2
07:40 61.0 °F 59.5 °F 29.80 in South 5.0 mph 10.0 mph 95 % 0.02 in 7 W/m2
07:45 61.0 °F 59.5 °F 29.80 in SSW 5.0 mph 12.0 mph 95 % 0.02 in 5 W/m2
07:50 61.0 °F 59.5 °F 29.80 in South 6.0 mph 12.0 mph 95 % 0.03 in 5 W/m2
07:55 61.0 °F 59.5 °F 29.81 in South 7.0 mph 12.0 mph 95 % 0.04 in 7 W/m2
08:01 61.0 °F 59.5 °F 29.80 in SSW 6.0 mph 12.0 mph 95 % 0.04 in 11 W/m2
08:06 61.0 °F 59.5 °F 29.80 in SSW 5.0 mph 9.0 mph 95 % 0.04 in 11 W/m2
08:11 61.0 °F 59.5 °F 29.81 in SSW 4.0 mph 9.0 mph 95 % 0.05 in 12 W/m2
08:16 61.0 °F 59.5 °F 29.81 in SSW 5.0 mph 10.0 mph 95 % 0.05 in 14 W/m2
08:21 61.0 °F 59.5 °F 29.81 in SSW 5.0 mph 10.0 mph 95 % 0.05 in 14 W/m2
08:26 61.0 °F 59.5 °F 29.81 in SSW 5.0 mph 9.0 mph 95 % 0.05 in 16 W/m2
08:31 61.0 °F 59.5 °F 29.81 in SSW 5.0 mph 10.0 mph 95 % 0.05 in 16 W/m2
08:36 61.0 °F 59.5 °F 29.80 in SSW 5.0 mph 10.0 mph 95 % 0.05 in 18 W/m2
08:41 61.0 °F 59.5 °F 29.80 in SSW 5.0 mph 10.0 mph 95 % 0.06 in 21 W/m2
08:46 61.0 °F 59.5 °F 29.80 in SSW 4.0 mph 10.0 mph 95 % 0.04 in 37 W/m2
08:51 61.0 °F 59.5 °F 29.80 in SSW 3.0 mph 7.0 mph 95 % 0.04 in 39 W/m2
08:56 61.0 °F 59.5 °F 29.80 in SSW 4.0 mph 7.0 mph 95 % 0.03 in 44 W/m2
09:01 61.0 °F 59.5 °F 29.80 in South 4.0 mph 7.0 mph 95 % 0.03 in 49 W/m2
09:06 61.2 °F 60.0 °F 29.80 in SSE 4.0 mph 9.0 mph 96 % 0.03 in 42 W/m2
09:11 61.2 °F 60.0 °F 29.80 in SSE 4.0 mph 9.0 mph 96 % 0.02 in 35 W/m2
09:16 61.2 °F 60.0 °F 29.80 in SSE 5.0 mph 8.0 mph 96 % 0.02 in 35 W/m2
09:21 61.2 °F 59.7 °F 29.80 in SSE 4.0 mph 8.0 mph 95 % 0.02 in 35 W/m2
09:26 61.2 °F 60.0 °F 29.80 in South 4.0 mph 8.0 mph 96 % 0.02 in 46 W/m2
09:31 61.2 °F 60.0 °F 29.80 in South 5.0 mph 10.0 mph 96 % 0.02 in 62 W/m2
09:37 61.3 °F 60.2 °F 29.80 in South 5.0 mph 12.0 mph 96 % 0.02 in 79 W/m2
09:41 61.3 °F 60.2 °F 29.80 in SSW 5.0 mph 12.0 mph 96 % 0.01 in 77 W/m2
09:47 61.5 °F 60.4 °F 29.80 in SSW 5.0 mph 10.0 mph 96 % 0.01 in 116 W/m2
09:52 61.5 °F 60.4 °F 29.80 in South 4.0 mph 9.0 mph 96 % 0.00 in 121 W/m2
09:57 61.7 °F 60.5 °F 29.80 in South 4.0 mph 8.0 mph 96 % 0.00 in 84 W/m2
09:58 61.9 °F 60.7 °F 29.80 in South 3.0 mph 8.0 mph 96 % 0.00 in 77 W/m2
10:03 61.9 °F 60.7 °F 29.80 in South 2.0 mph 8.0 mph 96 % 0.00 in 77 W/m2
10:08 62.1 °F 60.9 °F 29.80 in South 2.0 mph 8.0 mph 96 % 0.00 in 81 W/m2
10:13 62.1 °F 60.9 °F 29.80 in South 3.0 mph 8.0 mph 96 % 0.00 in 72 W/m2
10:18 62.2 °F 61.1 °F 29.80 in SSW 5.0 mph 9.0 mph 96 % 0.00 in 72 W/m2
10:23 62.2 °F 61.1 °F 29.80 in SW 6.0 mph 9.0 mph 96 % 0.00 in 74 W/m2
10:28 62.4 °F 61.3 °F 29.80 in SW 6.0 mph 9.0 mph 96 % 0.00 in 95 W/m2
10:33 62.4 °F 61.3 °F 29.80 in SSW 6.0 mph 9.0 mph 96 % 0.00 in 100 W/m2
10:38 62.6 °F 61.4 °F 29.80 in SSW 6.0 mph 9.0 mph 96 % 0.00 in 121 W/m2
10:43 62.6 °F 61.4 °F 29.79 in SW 5.0 mph 9.0 mph 96 % 0.00 in 151 W/m2
10:48 62.8 °F 61.3 °F 29.80 in SW 5.0 mph 9.0 mph 95 % 0.00 in 134 W/m2
10:53 62.8 °F 61.3 °F 29.80 in SSW 6.0 mph 10.0 mph 95 % 0.00 in 118 W/m2
10:58 62.8 °F 61.3 °F 29.80 in SSW 7.0 mph 13.0 mph 95 % 0.00 in 155 W/m2
11:03 62.8 °F 61.0 °F 29.80 in SW 7.0 mph 13.0 mph 94 % 0.00 in 199 W/m2
11:08 62.8 °F 61.0 °F 29.80 in SW 7.0 mph 12.0 mph 94 % 0.00 in 156 W/m2
11:13 63.0 °F 61.2 °F 29.80 in SW 7.0 mph 12.0 mph 94 % 0.00 in 163 W/m2
11:18 63.0 °F 60.9 °F 29.80 in SW 7.0 mph 12.0 mph 93 % 0.00 in 144 W/m2
11:23 63.1 °F 61.1 °F 29.80 in SW 7.0 mph 12.0 mph 93 % 0.00 in 153 W/m2
11:28 63.1 °F 61.1 °F 29.80 in SSW 8.0 mph 16.0 mph 93 % 0.00 in 213 W/m2
11:33 63.3 °F 61.3 °F 29.80 in SW 9.0 mph 16.0 mph 93 % 0.00 in 348 W/m2
11:38 63.7 °F 61.6 °F 29.80 in SW 7.0 mph 13.0 mph 93 % 0.00 in 223 W/m2
11:43 63.7 °F 61.0 °F 29.80 in SW 8.0 mph 12.0 mph 91 % 0.00 in 139 W/m2
11:48 63.7 °F 61.0 °F 29.80 in SW 8.0 mph 15.0 mph 91 % 0.00 in 185 W/m2
11:53 63.7 °F 60.7 °F 29.80 in SW 8.0 mph 15.0 mph 90 % 0.00 in 230 W/m2
11:58 63.7 °F 61.0 °F 29.79 in SW 7.0 mph 13.0 mph 91 % 0.00 in 223 W/m2
12:03 63.9 °F 61.2 °F 29.80 in SW 7.0 mph 12.0 mph 91 % 0.00 in 272 W/m2
12:08 64.0 °F 61.0 °F 29.80 in SW 8.0 mph 14.0 mph 90 % 0.00 in 288 W/m2
12:13 64.0 °F 61.0 °F 29.80 in SW 8.0 mph 15.0 mph 90 % 0.00 in 218 W/m2
12:18 64.0 °F 61.0 °F 29.80 in SW 9.0 mph 15.0 mph 90 % 0.00 in 188 W/m2
12:24 64.0 °F 61.0 °F 29.80 in SSW 10.0 mph 16.0 mph 90 % 0.00 in 243 W/m2
12:29 64.0 °F 61.4 °F 29.80 in SSW 10.0 mph 19.0 mph 91 % 0.00 in 301 W/m2
12:34 64.0 °F 61.4 °F 29.80 in SSW 9.0 mph 19.0 mph 91 % 0.00 in 297 W/m2
12:39 64.2 °F 61.8 °F 29.80 in SW 7.0 mph 13.0 mph 92 % 0.00 in 269 W/m2
12:44 64.2 °F 61.5 °F 29.80 in SSW 7.0 mph 13.0 mph 91 % 0.00 in 221 W/m2
12:49 64.2 °F 61.2 °F 29.80 in SSW 8.0 mph 13.0 mph 90 % 0.00 in 283 W/m2
12:54 64.4 °F 61.4 °F 29.80 in SSW 8.0 mph 15.0 mph 90 % 0.00 in 257 W/m2
12:59 64.6 °F 61.3 °F 29.80 in SSW 8.0 mph 15.0 mph 89 % 0.00 in 225 W/m2
13:04 64.8 °F 61.1 °F 29.80 in SSW 8.0 mph 15.0 mph 88 % 0.00 in 237 W/m2
13:09 64.9 °F 61.3 °F 29.79 in SSW 7.0 mph 15.0 mph 88 % 0.00 in 213 W/m2
13:14 64.9 °F 61.0 °F 29.79 in SSW 6.0 mph 11.0 mph 87 % 0.00 in 158 W/m2
13:19 65.1 °F 61.2 °F 29.79 in SW 6.0 mph 10.0 mph 87 % 0.00 in 118 W/m2
13:29 65.3 °F 59.3 °F 29.80 in WSW 11.0 mph 20.0 mph 81 % 0.00 in 77 W/m2
13:34 65.3 °F 59.3 °F 29.80 in WSW 10.0 mph 20.0 mph 81 % 0.00 in 120 W/m2
13:39 65.1 °F 59.5 °F 29.80 in West 9.0 mph 18.0 mph 82 % 0.00 in 116 W/m2
13:44 65.1 °F 59.8 °F 29.80 in West 9.0 mph 13.0 mph 83 % 0.00 in 183 W/m2
13:49 65.1 °F 59.8 °F 29.80 in West 9.0 mph 14.0 mph 83 % 0.00 in 171 W/m2
13:54 65.3 °F 60.3 °F 29.80 in West 9.0 mph 15.0 mph 84 % 0.00 in 241 W/m2
13:59 65.5 °F 60.5 °F 29.80 in West 7.0 mph 15.0 mph 84 % 0.00 in 227 W/m2
14:04 65.8 °F 59.8 °F 29.80 in WSW 9.0 mph 19.0 mph 81 % 0.00 in 281 W/m2
14:09 66.0 °F 59.3 °F 29.80 in WSW 12.0 mph 22.0 mph 79 % 0.00 in 345 W/m2
14:14 66.2 °F 59.5 °F 29.80 in WSW 12.0 mph 22.0 mph 79 % 0.00 in 322 W/m2
14:19 66.6 °F 59.5 °F 29.80 in WSW 13.0 mph 25.0 mph 78 % 0.00 in 318 W/m2
14:24 66.7 °F 59.3 °F 29.80 in WSW 13.0 mph 25.0 mph 77 % 0.00 in 455 W/m2
14:29 66.9 °F 59.8 °F 29.80 in WSW 13.0 mph 22.0 mph 78 % 0.00 in 269 W/m2
14:34 66.9 °F 59.8 °F 29.80 in West 12.0 mph 22.0 mph 78 % 0.00 in 216 W/m2
14:39 66.9 °F 59.5 °F 29.80 in West 10.0 mph 16.0 mph 77 % 0.00 in 151 W/m2
14:44 66.9 °F 59.8 °F 29.80 in West 10.0 mph 19.0 mph 78 % 0.00 in 204 W/m2
14:49 66.7 °F 59.7 °F 29.80 in West 10.0 mph 19.0 mph 78 % 0.00 in 134 W/m2
14:50 66.7 °F 59.7 °F 29.80 in WNW 10.0 mph 19.0 mph 78 % 0.00 in 139 W/m2
14:55 66.6 °F 59.1 °F 29.80 in West 10.0 mph 16.0 mph 77 % 0.00 in 199 W/m2
15:00 66.6 °F 59.5 °F 29.80 in WNW 10.0 mph 20.0 mph 78 % 0.00 in 130 W/m2
15:05 66.4 °F 59.3 °F 29.80 in WNW 11.0 mph 20.0 mph 78 % 0.00 in 153 W/m2
15:11 66.2 °F 59.5 °F 29.80 in West 11.0 mph 19.0 mph 79 % 0.00 in 174 W/m2
15:16 66.0 °F 59.3 °F 29.80 in West 10.0 mph 20.0 mph 79 % 0.00 in 199 W/m2
15:21 66.0 °F 59.3 °F 29.80 in West 11.0 mph 20.0 mph 79 % 0.00 in 163 W/m2
15:26 66.0 °F 59.3 °F 29.80 in West 11.0 mph 22.0 mph 79 % 0.00 in 169 W/m2
15:31 65.8 °F 59.5 °F 29.81 in West 11.0 mph 22.0 mph 80 % 0.00 in 165 W/m2
15:36 65.7 °F 59.0 °F 29.81 in West 11.0 mph 23.0 mph 79 % 0.00 in 192 W/m2
15:41 65.5 °F 58.8 °F 29.81 in West 11.0 mph 23.0 mph 79 % 0.00 in 167 W/m2
15:46 65.3 °F 59.0 °F 29.81 in West 9.0 mph 14.0 mph 80 % 0.00 in 165 W/m2
15:51 65.1 °F 59.1 °F 29.81 in West 7.0 mph 14.0 mph 81 % 0.00 in 113 W/m2
15:56 65.1 °F 59.1 °F 29.81 in West 7.0 mph 15.0 mph 81 % 0.00 in 134 W/m2
16:01 65.1 °F 59.1 °F 29.81 in West 8.0 mph 15.0 mph 81 % 0.00 in 163 W/m2
16:06 64.9 °F 59.0 °F 29.81 in WNW 8.0 mph 15.0 mph 81 % 0.00 in 181 W/m2
16:11 64.8 °F 58.4 °F 29.82 in WNW 10.0 mph 19.0 mph 80 % 0.00 in 200 W/m2
16:16 64.6 °F 58.3 °F 29.82 in West 11.0 mph 19.0 mph 80 % 0.00 in 221 W/m2
16:21 64.6 °F 58.6 °F 29.82 in West 10.0 mph 19.0 mph 81 % 0.00 in 197 W/m2
16:26 64.4 °F 58.1 °F 29.82 in West 9.0 mph 19.0 mph 80 % 0.00 in 163 W/m2
16:31 64.6 °F 58.6 °F 29.82 in WNW 9.0 mph 18.0 mph 81 % 0.00 in 178 W/m2
16:36 64.6 °F 58.3 °F 29.82 in WNW 9.0 mph 18.0 mph 80 % 0.00 in 130 W/m2
16:41 64.2 °F 57.9 °F 29.82 in WNW 10.0 mph 18.0 mph 80 % 0.00 in 186 W/m2
16:46 64.0 °F 57.7 °F 29.82 in WNW 9.0 mph 15.0 mph 80 % 0.00 in 202 W/m2
16:51 64.0 °F 57.7 °F 29.82 in West 8.0 mph 12.0 mph 80 % 0.00 in 167 W/m2
16:56 63.9 °F 57.2 °F 29.83 in WNW 9.0 mph 18.0 mph 79 % 0.00 in 204 W/m2
17:01 63.9 °F 57.2 °F 29.83 in WNW 10.0 mph 18.0 mph 79 % 0.00 in 190 W/m2
17:06 63.9 °F 56.9 °F 29.83 in WNW 10.0 mph 16.0 mph 78 % 0.00 in 149 W/m2
17:11 63.9 °F 56.9 °F 29.83 in WNW 9.0 mph 16.0 mph 78 % 0.00 in 121 W/m2
17:16 63.7 °F 56.7 °F 29.83 in WNW 8.0 mph 18.0 mph 78 % 0.00 in 98 W/m2
17:21 63.7 °F 56.7 °F 29.83 in WNW 9.0 mph 18.0 mph 78 % 0.00 in 105 W/m2
17:26 63.3 °F 56.3 °F 29.84 in WNW 9.0 mph 15.0 mph 78 % 0.00 in 84 W/m2
17:29 63.3 °F 56.3 °F 29.84 in WNW 9.0 mph 19.0 mph 78 % 0.00 in 84 W/m2
17:34 63.1 °F 56.5 °F 29.84 in WNW 9.0 mph 19.0 mph 79 % 0.00 in 114 W/m2
17:39 62.8 °F 56.2 °F 29.84 in WNW 9.0 mph 15.0 mph 79 % 0.00 in 148 W/m2
17:44 62.8 °F 56.2 °F 29.84 in WNW 9.0 mph 15.0 mph 79 % 0.00 in 149 W/m2
17:49 62.4 °F 55.8 °F 29.85 in WNW 9.0 mph 19.0 mph 79 % 0.00 in 105 W/m2
17:54 62.2 °F 55.6 °F 29.85 in WNW 10.0 mph 19.0 mph 79 % 0.00 in 193 W/m2
17:59 62.2 °F 55.3 °F 29.85 in WNW 9.0 mph 16.0 mph 78 % 0.00 in 153 W/m2
18:04 62.4 °F 55.5 °F 29.85 in West 9.0 mph 14.0 mph 78 % 0.00 in 93 W/m2
18:09 62.2 °F 55.3 °F 29.85 in West 8.0 mph 15.0 mph 78 % 0.00 in 56 W/m2
18:14 62.1 °F 55.1 °F 29.85 in WNW 9.0 mph 16.0 mph 78 % 0.00 in 58 W/m2
18:19 61.7 °F 55.1 °F 29.85 in WNW 11.0 mph 19.0 mph 79 % 0.00 in 58 W/m2
18:24 61.5 °F 55.3 °F 29.85 in WNW 11.0 mph 19.0 mph 80 % 0.00 in 181 W/m2
18:29 61.5 °F 55.3 °F 29.85 in WNW 10.0 mph 16.0 mph 80 % 0.00 in 98 W/m2
18:34 61.5 °F 55.6 °F 29.85 in WNW 10.0 mph 15.0 mph 81 % 0.00 in 76 W/m2
18:39 61.3 °F 55.1 °F 29.85 in West 9.0 mph 19.0 mph 80 % 0.00 in 77 W/m2
18:44 61.2 °F 54.9 °F 29.85 in West 10.0 mph 19.0 mph 80 % 0.00 in 63 W/m2
18:49 60.8 °F 54.6 °F 29.85 in WNW 11.0 mph 16.0 mph 80 % 0.00 in 56 W/m2
18:54 60.6 °F 54.4 °F 29.86 in West 11.0 mph 19.0 mph 80 % 0.00 in 54 W/m2
18:59 60.6 °F 54.4 °F 29.86 in West 9.0 mph 19.0 mph 80 % 0.00 in 65 W/m2
19:04 60.4 °F 54.2 °F 29.86 in WNW 10.0 mph 18.0 mph 80 % 0.00 in 67 W/m2
19:09 60.4 °F 54.6 °F 29.86 in WNW 11.0 mph 18.0 mph 81 % 0.00 in 76 W/m2
19:14 60.4 °F 54.6 °F 29.86 in WNW 9.0 mph 18.0 mph 81 % 0.00 in 47 W/m2
19:19 60.4 °F 54.6 °F 29.86 in WNW 9.0 mph 14.0 mph 81 % 0.00 in 26 W/m2
19:24 60.3 °F 54.4 °F 29.87 in WNW 9.0 mph 19.0 mph 81 % 0.00 in 23 W/m2
19:29 60.1 °F 54.2 °F 29.87 in WNW 9.0 mph 19.0 mph 81 % 0.00 in 21 W/m2
19:34 59.9 °F 54.1 °F 29.87 in WNW 9.0 mph 15.0 mph 81 % 0.00 in 16 W/m2
19:39 59.7 °F 53.9 °F 29.87 in WNW 9.0 mph 15.0 mph 81 % 0.00 in 11 W/m2
19:44 59.5 °F 54.0 °F 29.88 in WNW 8.0 mph 14.0 mph 82 % 0.00 in 7 W/m2
19:49 59.4 °F 53.9 °F 29.88 in WNW 8.0 mph 14.0 mph 82 % 0.00 in 5 W/m2
19:54 59.2 °F 54.0 °F 29.88 in WNW 9.0 mph 14.0 mph 83 % 0.00 in 0 W/m2
19:59 58.8 °F 53.7 °F 29.88 in WNW 9.0 mph 14.0 mph 83 % 0.00 in 0 W/m2
20:04 58.6 °F 53.5 °F 29.89 in WNW 8.0 mph 14.0 mph 83 % 0.00 in 0 W/m2
20:09 58.5 °F 53.6 °F 29.89 in WNW 7.0 mph 11.0 mph 84 % 0.00 in 0 W/m2
20:11 58.5 °F 53.6 °F 29.89 in WNW 6.0 mph 10.0 mph 84 % 0.00 in 0 W/m2
20:16 58.3 °F 53.5 °F 29.89 in West 5.0 mph 9.0 mph 84 % 0.00 in 0 W/m2
20:21 58.1 °F 53.3 °F 29.89 in West 4.0 mph 7.0 mph 84 % 0.00 in 0 W/m2
20:26 57.9 °F 53.4 °F 29.90 in West 3.0 mph 6.0 mph 85 % 0.00 in 0 W/m2
20:31 57.6 °F 53.1 °F 29.90 in West 3.0 mph 6.0 mph 85 % 0.00 in 0 W/m2
20:36 57.4 °F 52.9 °F 29.90 in WNW 2.0 mph 6.0 mph 85 % 0.00 in 0 W/m2
20:38 57.4 °F 52.9 °F 29.90 in WNW 2.0 mph 6.0 mph 85 % 0.00 in 0 W/m2
20:43 57.0 °F 52.9 °F 29.91 in WNW 2.0 mph 6.0 mph 86 % 0.00 in 0 W/m2
20:48 56.8 °F 52.7 °F 29.91 in WNW 2.0 mph 6.0 mph 86 % 0.00 in 0 W/m2
20:53 56.7 °F 52.8 °F 29.91 in West 1.0 mph 5.0 mph 87 % 0.00 in 0 W/m2
20:58 56.5 °F 52.7 °F 29.91 in West 1.0 mph 6.0 mph 87 % 0.00 in 0 W/m2
21:03 56.1 °F 52.3 °F 29.91 in WNW 2.0 mph 6.0 mph 87 % 0.00 in 0 W/m2
21:08 55.9 °F 52.1 °F 29.91 in WNW 4.0 mph 7.0 mph 87 % 0.00 in 0 W/m2
21:13 55.9 °F 52.4 °F 29.91 in WNW 4.0 mph 7.0 mph 88 % 0.00 in 0 W/m2
21:18 55.8 °F 52.3 °F 29.91 in WNW 2.0 mph 6.0 mph 88 % 0.00 in 0 W/m2
21:23 55.6 °F 52.1 °F 29.91 in Calm   4.0 mph 88 % 0.00 in 0 W/m2
21:28 55.2 °F 51.7 °F 29.91 in Calm   2.0 mph 88 % 0.00 in 0 W/m2
21:33 55.0 °F 51.5 °F 29.92 in Calm   5.0 mph 88 % 0.00 in 0 W/m2
21:38 54.9 °F 51.7 °F 29.91 in Calm   5.0 mph 89 % 0.00 in 0 W/m2
21:43 54.7 °F 51.5 °F 29.92 in Calm     89 % 0.00 in 0 W/m2
21:48 54.5 °F 51.3 °F 29.92 in Calm     89 % 0.00 in 0 W/m2
21:53 54.3 °F 51.1 °F 29.92 in Calm     89 % 0.00 in 0 W/m2
21:58 54.1 °F 51.3 °F 29.92 in Calm     90 % 0.00 in 0 W/m2
22:03 54.0 °F 51.1 °F 29.92 in Calm     90 % 0.00 in 0 W/m2
22:08 53.8 °F 50.9 °F 29.92 in Calm     90 % 0.00 in 0 W/m2
22:13 53.8 °F 50.9 °F 29.92 in Calm     90 % 0.00 in 0 W/m2
22:18 53.6 °F 51.0 °F 29.92 in Calm     91 % 0.00 in 0 W/m2
22:23 53.4 °F 50.6 °F 29.92 in Calm     90 % 0.00 in 0 W/m2
22:28 53.2 °F 50.4 °F 29.92 in Calm     90 % 0.00 in 0 W/m2
22:33 53.1 °F 50.5 °F 29.92 in Calm     91 % 0.00 in 0 W/m2
22:38 52.9 °F 50.3 °F 29.93 in Calm     91 % 0.00 in 0 W/m2
22:43 52.7 °F 50.1 °F 29.93 in Calm     91 % 0.00 in 0 W/m2
22:48 52.5 °F 50.0 °F 29.93 in Calm     91 % 0.00 in 0 W/m2
22:53 52.3 °F 50.1 °F 29.93 in Calm     92 % 0.00 in 0 W/m2
22:58 52.3 °F 50.1 °F 29.93 in Calm     92 % 0.00 in 0 W/m2
23:03 52.3 °F 50.1 °F 29.93 in Calm     92 % 0.00 in 0 W/m2
23:08 52.2 °F 49.9 °F 29.93 in Calm   1.0 mph 92 % 0.00 in 0 W/m2
23:13 52.2 °F 49.9 °F 29.93 in Calm   4.0 mph 92 % 0.00 in 0 W/m2
23:18 52.0 °F 49.7 °F 29.93 in WNW 1.0 mph 4.0 mph 92 % 0.00 in 0 W/m2
23:23 51.8 °F 49.5 °F 29.93 in Calm   2.0 mph 92 % 0.00 in 0 W/m2
23:28 51.8 °F 49.8 °F 29.93 in Calm     93 % 0.00 in 0 W/m2
23:33 52.0 °F 50.0 °F 29.93 in Calm     93 % 0.00 in 0 W/m2
23:38 51.8 °F 49.8 °F 29.93 in Calm   3.0 mph 93 % 0.00 in 0 W/m2
23:43 51.6 °F 49.7 °F 29.93 in WNW 2.0 mph 4.0 mph 93 % 0.00 in 0 W/m2
23:48 51.6 °F 49.7 °F 29.94 in WNW 2.0 mph 4.0 mph 93 % 0.00 in 0 W/m2
23:53 51.8 °F 49.8 °F 29.93 in WNW 2.0 mph 4.0 mph 93 % 0.00 in 0 W/m2
23:58 52.0 °F 50.3 °F 29.94 in WNW 1.0 mph 4.0 mph 94 % 0.00 in 0 W/m2
Delerius-Weather
Compliments of Weather Underground - 2.25 mb

Data updates at regular intervals.